Georgetown, SC (29440)

7:07 AM EST on December 05, 2016 (GMT -0500)
Debordieu | | Change Station

Elev 36 ft 33.38 °N, 79.18 °W | Updated 13 minutes ago

Overcast
Overcast
54.4 °F
Feels Like 54.4 °F
N
0.0
Wind Variable Wind from WSW
Gusts 2.0 mph

Today
High -- | Low -- °F
--% Chance of Precip.
Yesterday
High -- | Low -- °F
Precip. -- in
Pressure 29.98 in
Visibility 3.0 miles
Clouds Mostly Cloudy 900 ft
Overcast 3600 ft
Dew Point 54 °F
Humidity 97%
Rainfall 0.20 in
Snow Depth Not available.
7:06 AM 5:09 PM
Waxing Crescent, 31% visible
SPECI KMYR 051205Z 33007KT 3SM BR RA BKN009 OVC036 12/09 A2998
Pressure 29.98 in
Visibility 3.0 miles
Clouds Mostly Cloudy 900 ft
Overcast 3600 ft
Dew Point 54 °F
Humidity 97%
Rainfall 0.20 in
Snow Depth Not available.
7:06 AM 5:09 PM
Waxing Crescent, 31% visible
SPECI KMYR 051205Z 33007KT 3SM BR RA BKN009 OVC036 12/09 A2998

10-Day Weather Forecast

Almanac

Astronomy

Dec. 05, 2016 Rise Set
Actual Time
Civil Twilight
Nautical Twilight
Astronomical Twilight
Moon
Length of Visible Light
Length of Day
Tomorrow will be .
, % of the Moon is Illuminated

Today's Extremes

State Highs State Lows

Community

WunderPhotos

Upload Photos

1,955,779 photos uploaded!

WunderBlog® & News

Nearby

Air Quality

  Air Quality AQ Index Pollutant
Not available.

Snow Depth

Station Depth Elevation

Earthquake Activity

City Distance Mag. Time & Date
Minimum magnitude displayed is 2.5.

Coastal Water Temperatures

Place Temperature

Stations

Nearby Weather Stations

Station Location Temp. Windchill Dew Point Humidity Wind Precip. Elev Updated Type
                   

Watches & Warnings

There are currently no watches in effect.